Time;durP1;ratioP1;P1;durP2;ratioP2;P2;SDS_P1;SDS_P2;PMS_P1;PMS_P2;Temp;Humidity;BMP_temperature;BMP_pressure;BME280_temperature;BME280_humidity;BME280_pressure;Samples;Min_cycle;Max_cycle;Signal;HPM_P1;HPM_P2
2021/01/01 00:00:33;;;;;;;25.13;17.17;;;2.00;96.60;;;;;;5068169;28;20024;-66
2021/01/01 00:03:00;;;;;;;25.52;16.88;;;2.00;96.60;;;;;;5065767;28;20432;-67
2021/01/01 00:05:31;;;;;;;23.50;16.77;;;2.00;96.60;;;;;;5063750;28;20036;-67
2021/01/01 00:07:57;;;;;;;24.88;16.35;;;2.10;96.60;;;;;;5067340;28;20540;-67
2021/01/01 00:10:23;;;;;;;25.45;15.70;;;2.10;96.60;;;;;;5055383;28;20120;-67
2021/01/01 00:12:48;;;;;;;22.75;16.58;;;2.10;96.60;;;;;;5052475;28;20111;-68
2021/01/01 00:15:15;;;;;;;26.73;15.73;;;2.00;96.50;;;;;;5050613;28;20099;-68
2021/01/01 00:17:41;;;;;;;26.90;17.58;;;2.00;96.60;;;;;;5052321;28;20526;-67
2021/01/01 00:20:09;;;;;;;26.33;16.67;;;2.10;96.60;;;;;;5049428;28;20028;-67
2021/01/01 00:22:35;;;;;;;24.88;15.85;;;2.10;96.60;;;;;;5033150;28;20028;-67
2021/01/01 00:25:02;;;;;;;26.85;16.63;;;2.10;96.60;;;;;;5051435;28;20078;-67
2021/01/01 00:27:29;;;;;;;25.75;16.63;;;2.10;96.60;;;;;;5050502;28;20182;-68
2021/01/01 00:29:55;;;;;;;24.55;15.40;;;2.10;96.60;;;;;;5032147;28;20031;-67
2021/01/01 00:32:21;;;;;;;23.83;15.85;;;2.10;96.60;;;;;;5052422;28;20446;-67
2021/01/01 00:34:46;;;;;;;26.63;17.90;;;2.10;96.50;;;;;;5051835;28;20033;-67
2021/01/01 00:37:12;;;;;;;24.20;15.07;;;2.10;96.50;;;;;;5051015;28;20027;-67
2021/01/01 00:39:38;;;;;;;27.75;17.67;;;2.10;96.50;;;;;;5050378;28;20171;-67
2021/01/01 00:42:04;;;;;;;26.98;17.98;;;2.10;96.50;;;;;;5049726;28;20316;-67
2021/01/01 00:44:31;;;;;;;28.88;17.92;;;2.10;96.40;;;;;;5050409;28;20471;-67
2021/01/01 00:46:57;;;;;;;26.05;17.60;;;2.10;96.40;;;;;;5049261;28;20425;-67
2021/01/01 00:49:22;;;;;;;29.48;16.98;;;2.00;96.40;;;;;;5050413;28;20032;-67
2021/01/01 00:51:48;;;;;;;29.13;17.83;;;2.10;96.50;;;;;;5050158;28;20515;-67
2021/01/01 00:54:14;;;;;;;29.13;16.45;;;2.10;96.50;;;;;;5049333;28;20036;-67
2021/01/01 00:56:40;;;;;;;27.95;17.10;;;2.00;96.30;;;;;;5050106;28;20025;-67
2021/01/01 00:59:06;;;;;;;28.58;17.90;;;2.10;96.30;;;;;;5048155;28;20028;-67
2021/01/01 01:01:32;;;;;;;33.78;18.42;;;2.10;96.30;;;;;;5050295;28;20561;-68
2021/01/01 01:03:57;;;;;;;28.73;18.10;;;2.10;96.10;;;;;;5049958;28;20029;-67
2021/01/01 01:06:25;;;;;;;32.67;19.05;;;2.10;96.10;;;;;;5047018;28;20109;-66
2021/01/01 01:08:51;;;;;;;28.52;17.90;;;2.10;96.00;;;;;;5053976;28;20043;-67
2021/01/01 01:11:23;;;;;;;27.08;16.25;;;2.10;96.10;;;;;;5047018;28;20035;-67
2021/01/01 01:13:50;;;;;;;32.25;18.88;;;2.10;96.10;;;;;;5030928;28;20751;-66
2021/01/01 01:16:27;;;;;;;31.48;18.58;;;2.10;96.30;;;;;;5049574;28;20028;-67
2021/01/01 01:18:53;;;;;;;29.13;18.63;;;2.00;96.30;;;;;;5049889;28;20086;-67
2021/01/01 01:21:20;;;;;;;32.85;19.30;;;2.10;96.30;;;;;;5048748;28;20143;-67
2021/01/01 01:23:46;;;;;;;32.03;19.60;;;2.10;96.40;;;;;;5050004;28;20024;-67
2021/01/01 01:26:11;;;;;;;30.85;19.90;;;2.00;96.40;;;;;;5050368;28;20428;-67
2021/01/01 01:28:37;;;;;;;36.45;18.83;;;2.00;96.50;;;;;;5047415;28;20028;-67
2021/01/01 01:31:03;;;;;;;34.05;20.23;;;2.00;96.50;;;;;;5048685;28;20040;-66
2021/01/01 01:33:28;;;;;;;37.80;19.77;;;2.00;96.30;;;;;;5048932;28;20028;-67
2021/01/01 01:35:54;;;;;;;33.78;20.63;;;2.00;96.40;;;;;;5058176;28;20036;-67
2021/01/01 01:38:20;;;;;;;33.17;20.13;;;2.00;96.20;;;;;;5074922;28;20085;-67
2021/01/01 01:40:45;;;;;;;32.97;19.80;;;2.00;96.10;;;;;;5063596;28;20024;-66
2021/01/01 01:43:11;;;;;;;36.30;19.13;;;2.00;96.10;;;;;;5078221;28;20032;-66
2021/01/01 01:45:37;;;;;;;33.88;20.40;;;2.00;96.10;;;;;;5061326;28;20110;-67
2021/01/01 01:48:04;;;;;;;34.70;20.38;;;2.00;96.00;;;;;;5064059;28;20507;-67
2021/01/01 01:50:31;;;;;;;33.25;19.90;;;2.00;96.10;;;;;;5064493;28;20127;-67
2021/01/01 01:52:57;;;;;;;33.08;19.45;;;2.00;96.00;;;;;;5067872;28;20173;-66
2021/01/01 01:55:23;;;;;;;31.33;18.60;;;2.00;96.00;;;;;;5056469;28;20398;-67
2021/01/01 01:57:50;;;;;;;33.40;19.80;;;2.00;96.00;;;;;;5056416;28;20036;-67
2021/01/01 02:02:48;;;;;;;31.75;19.02;;;2.00;95.90;;;;;;5075376;28;20024;-67
2021/01/01 02:05:14;;;;;;;30.55;19.13;;;2.10;95.90;;;;;;5064242;28;20035;-67
2021/01/01 02:07:40;;;;;;;31.83;18.40;;;2.00;95.80;;;;;;5074451;28;20412;-67
2021/01/01 02:10:07;;;;;;;28.95;19.23;;;2.00;95.80;;;;;;5064281;28;20643;-66
2021/01/01 02:12:32;;;;;;;34.70;20.25;;;2.00;95.80;;;;;;5067262;28;20388;-67
2021/01/01 02:14:58;;;;;;;33.53;19.60;;;2.00;95.70;;;;;;5057512;28;20032;-67
2021/01/01 02:17:24;;;;;;;32.42;19.65;;;2.00;95.60;;;;;;5058952;28;20165;-67
2021/01/01 02:20:08;;;;;;;34.72;18.77;;;2.00;95.70;;;;;;5064219;28;20111;-67
2021/01/01 02:22:37;;;;;;;32.35;19.13;;;2.00;95.60;;;;;;5056265;28;20417;-67
2021/01/01 02:25:09;;;;;;;30.77;17.65;;;2.00;95.50;;;;;;5065595;28;20132;-67
2021/01/01 02:27:36;;;;;;;33.58;18.55;;;2.10;95.50;;;;;;5072681;28;20043;-66
2021/01/01 02:30:02;;;;;;;32.17;18.98;;;2.10;95.40;;;;;;5050460;28;20039;-67
2021/01/01 02:32:28;;;;;;;29.00;18.10;;;2.10;95.40;;;;;;5065219;28;20481;-67
2021/01/01 02:34:53;;;;;;;32.28;19.42;;;2.00;95.20;;;;;;5064901;28;20104;-67
2021/01/01 02:37:19;;;;;;;32.20;19.20;;;2.10;95.20;;;;;;5071776;28;20177;-67
2021/01/01 02:39:44;;;;;;;33.53;18.77;;;2.10;95.20;;;;;;5080375;28;20064;-67
2021/01/01 02:42:10;;;;;;;32.17;18.23;;;2.10;95.30;;;;;;5076132;28;20042;-67
2021/01/01 02:44:35;;;;;;;30.98;18.98;;;2.10;95.20;;;;;;5082917;28;20111;-67
2021/01/01 02:47:05;;;;;;;32.85;19.17;;;2.10;95.20;;;;;;5069081;28;20119;-67
2021/01/01 02:49:31;;;;;;;30.42;17.73;;;2.10;95.00;;;;;;5068703;28;20089;-66
2021/01/01 02:51:58;;;;;;;33.50;18.77;;;2.10;95.00;;;;;;5071274;28;20456;-66
2021/01/01 02:54:23;;;;;;;29.92;17.00;;;2.10;95.10;;;;;;5060437;28;20043;-67
2021/01/01 02:56:49;;;;;;;28.45;17.85;;;2.10;95.10;;;;;;5039713;28;20028;-67
2021/01/01 02:59:14;;;;;;;32.85;17.77;;;2.10;95.00;;;;;;5059975;28;20051;-67
2021/01/01 03:01:40;;;;;;;30.30;17.08;;;2.10;95.20;;;;;;5077656;28;20081;-67
2021/01/01 03:04:06;;;;;;;30.88;17.98;;;2.10;95.20;;;;;;5066387;28;20183;-67
2021/01/01 03:06:31;;;;;;;32.92;18.10;;;2.10;95.00;;;;;;5079643;28;20107;-67
2021/01/01 03:08:57;;;;;;;28.83;17.20;;;2.10;94.90;;;;;;5072590;28;20050;-67
2021/01/01 03:11:23;;;;;;;31.30;18.65;;;2.10;94.90;;;;;;5069875;28;20108;-67
2021/01/01 03:13:48;;;;;;;29.77;16.60;;;2.10;95.00;;;;;;5067178;28;20210;-67
2021/01/01 03:16:14;;;;;;;31.02;16.88;;;2.10;94.70;;;;;;5064533;28;20483;-67
2021/01/01 03:18:40;;;;;;;28.38;17.13;;;2.10;94.70;;;;;;5082544;28;20031;-67
2021/01/01 03:21:05;;;;;;;26.83;16.48;;;2.10;94.80;;;;;;5071327;28;20028;-67
2021/01/01 03:23:31;;;;;;;29.92;17.73;;;2.10;94.60;;;;;;5078186;28;20457;-67
2021/01/01 03:25:57;;;;;;;29.08;16.35;;;2.10;94.70;;;;;;5066527;28;20032;-67
2021/01/01 03:28:22;;;;;;;30.25;16.30;;;2.10;94.70;;;;;;5080044;28;20035;-67
2021/01/01 03:30:48;;;;;;;30.98;18.05;;;2.10;94.70;;;;;;5072552;28;20126;-67
2021/01/01 03:33:13;;;;;;;29.83;16.00;;;2.10;94.60;;;;;;5066410;28;20462;-67
2021/01/01 03:35:39;;;;;;;26.20;15.52;;;2.10;94.60;;;;;;5051943;28;20033;-67
2021/01/01 03:38:05;;;;;;;28.90;16.45;;;2.10;94.60;;;;;;5068165;28;20607;-67
2021/01/01 03:40:31;;;;;;;29.48;16.48;;;2.10;94.60;;;;;;5067881;28;20219;-67
2021/01/01 03:42:57;;;;;;;28.38;16.23;;;2.10;94.80;;;;;;5070059;28;20140;-67
2021/01/01 03:45:22;;;;;;;30.52;16.30;;;2.10;95.00;;;;;;5069387;28;20021;-67
2021/01/01 03:47:48;;;;;;;31.63;17.98;;;2.10;95.10;;;;;;5076714;28;20035;-67
2021/01/01 03:50:14;;;;;;;28.65;16.65;;;2.10;95.20;;;;;;5072361;28;20108;-67
2021/01/01 03:52:39;;;;;;;29.25;17.10;;;2.10;95.30;;;;;;5066308;28;20115;-66
2021/01/01 03:55:05;;;;;;;31.30;17.73;;;2.10;95.20;;;;;;5058608;28;20028;-67
2021/01/01 03:57:31;;;;;;;34.33;18.50;;;2.10;95.40;;;;;;5065080;28;20671;-67
2021/01/01 03:59:56;;;;;;;29.38;17.73;;;2.10;95.20;;;;;;5068038;28;20137;-67
2021/01/01 04:02:22;;;;;;;29.35;18.25;;;2.10;95.30;;;;;;5069454;28;20085;-67
2021/01/01 04:04:48;;;;;;;32.72;19.27;;;2.00;95.20;;;;;;5074748;28;20029;-67
2021/01/01 04:07:13;;;;;;;31.83;18.25;;;2.00;95.30;;;;;;5068277;28;20436;-66
2021/01/01 04:09:39;;;;;;;37.03;18.83;;;2.00;95.30;;;;;;5073641;28;20032;-67
2021/01/01 04:12:05;;;;;;;32.28;18.27;;;2.00;95.40;;;;;;5065359;28;20056;-67
2021/01/01 04:14:31;;;;;;;32.65;18.55;;;2.00;95.40;;;;;;5056214;28;20033;-67
2021/01/01 04:16:57;;;;;;;33.58;18.25;;;2.00;95.50;;;;;;5057879;28;20021;-67
2021/01/01 04:19:22;;;;;;;32.90;18.42;;;2.00;95.60;;;;;;5067368;28;20609;-67
2021/01/01 04:21:49;;;;;;;34.72;19.75;;;2.00;95.60;;;;;;5059780;28;20028;-66
2021/01/01 04:24:18;;;;;;;37.05;19.42;;;2.00;95.70;;;;;;5068211;28;20124;-67
2021/01/01 04:26:44;;;;;;;33.10;18.73;;;1.90;95.70;;;;;;5067760;28;20087;-66
2021/01/01 04:29:10;;;;;;;37.28;18.17;;;1.90;95.60;;;;;;5076833;28;20102;-67
2021/01/01 04:31:37;;;;;;;36.85;19.30;;;1.90;95.80;;;;;;5067544;28;20138;-67
2021/01/01 04:34:04;;;;;;;36.42;20.10;;;1.90;95.80;;;;;;5065391;28;20296;-67
2021/01/01 04:36:30;;;;;;;39.55;19.13;;;1.90;95.90;;;;;;5067482;28;20025;-66
2021/01/01 04:38:56;;;;;;;34.55;18.42;;;1.90;95.90;;;;;;5079518;28;20483;-67
2021/01/01 04:41:22;;;;;;;37.17;19.67;;;1.90;95.90;;;;;;5060641;28;20039;-67
2021/01/01 04:43:51;;;;;;;41.25;19.30;;;1.90;96.00;;;;;;5078891;28;20032;-66
2021/01/01 04:46:18;;;;;;;39.08;19.55;;;1.80;96.00;;;;;;5087661;28;20104;-66
2021/01/01 04:48:45;;;;;;;41.53;21.23;;;1.80;96.00;;;;;;5080927;28;20043;-66
2021/01/01 04:51:12;;;;;;;33.72;18.33;;;1.80;96.10;;;;;;5066497;28;20020;-67
2021/01/01 04:53:38;;;;;;;39.20;19.75;;;1.80;96.20;;;;;;5076916;28;20356;-67
2021/01/01 04:56:05;;;;;;;34.90;19.98;;;1.80;96.20;;;;;;5087336;28;20140;-67
2021/01/01 04:58:31;;;;;;;36.63;19.67;;;1.80;96.30;;;;;;5080805;28;20043;-67
2021/01/01 05:00:56;;;;;;;41.03;20.08;;;1.90;96.30;;;;;;5061206;28;20021;-66
2021/01/01 05:03:22;;;;;;;40.92;18.88;;;1.80;96.30;;;;;;5073530;28;20069;-66
2021/01/01 05:05:49;;;;;;;35.70;19.13;;;1.80;96.30;;;;;;5080808;28;20024;-66
2021/01/01 05:08:16;;;;;;;37.03;19.40;;;1.90;96.30;;;;;;5066025;28;20051;-66
2021/01/01 05:10:42;;;;;;;37.47;18.73;;;1.80;96.40;;;;;;5066220;28;20480;-66
2021/01/01 05:13:16;;;;;;;34.08;19.60;;;1.80;96.40;;;;;;5072437;28;20054;-66
2021/01/01 05:15:43;;;;;;;34.08;18.27;;;1.80;96.40;;;;;;5071333;28;20063;-66
2021/01/01 05:18:25;;;;;;;34.45;18.65;;;1.80;96.40;;;;;;5070507;28;20039;-66
2021/01/01 05:20:55;;;;;;;38.03;18.60;;;1.80;96.30;;;;;;5054026;28;20059;-66
2021/01/01 05:23:30;;;;;;;33.80;18.92;;;1.80;96.40;;;;;;5072582;28;20020;-66
2021/01/01 05:26:12;;;;;;;37.47;20.02;;;1.80;96.40;;;;;;5079060;28;20039;-67
2021/01/01 05:28:49;;;;;;;39.25;20.65;;;1.80;96.40;;;;;;5077979;28;20479;-66
2021/01/01 05:31:22;;;;;;;39.33;19.85;;;1.70;96.40;;;;;;5067599;28;20096;-66
2021/01/01 05:33:53;;;;;;;41.47;20.02;;;1.70;96.40;;;;;;5058328;28;20086;-66
2021/01/01 05:36:31;;;;;;;36.08;20.13;;;1.70;96.40;;;;;;5056409;28;20081;-67
2021/01/01 05:38:57;;;;;;;37.40;19.65;;;1.70;96.40;;;;;;5078949;28;20396;-66
2021/01/01 05:41:52;;;;;;;41.75;20.33;;;1.70;96.50;;;;;;5067153;28;20054;-66
2021/01/01 05:44:25;;;;;;;39.78;19.50;;;1.70;96.50;;;;;;5075110;28;20261;-66
2021/01/01 05:46:55;;;;;;;37.60;19.65;;;1.70;96.60;;;;;;5039675;28;20435;-66
2021/01/01 05:49:26;;;;;;;37.00;21.02;;;1.70;96.60;;;;;;5079341;28;20028;-66
2021/01/01 05:52:24;;;;;;;41.85;20.20;;;1.70;96.70;;;;;;5071238;28;20052;-67
2021/01/01 05:54:59;;;;;;;38.15;19.23;;;1.70;96.70;;;;;;5083069;28;20074;-66
2021/01/01 05:57:36;;;;;;;40.92;20.15;;;1.70;96.60;;;;;;5064026;28;20035;-67
2021/01/01 06:00:07;;;;;;;42.03;19.77;;;1.70;96.70;;;;;;5058644;28;20270;-66
2021/01/01 06:02:41;;;;;;;42.15;19.45;;;1.70;96.60;;;;;;5066919;28;20029;-66
2021/01/01 06:05:08;;;;;;;40.92;18.90;;;1.70;96.60;;;;;;5061711;28;20051;-66
2021/01/01 06:07:38;;;;;;;41.45;20.55;;;1.70;96.60;;;;;;5065504;28;20461;-66
2021/01/01 06:10:09;;;;;;;39.65;19.95;;;1.60;96.60;;;;;;5065333;28;20102;-66
2021/01/01 06:12:37;;;;;;;43.22;20.60;;;1.60;96.70;;;;;;5056596;28;20033;-67
2021/01/01 06:15:12;;;;;;;39.10;20.10;;;1.60;96.70;;;;;;5081012;28;20561;-66
2021/01/01 06:17:47;;;;;;;40.80;19.42;;;1.60;96.70;;;;;;5046717;28;20025;-66
2021/01/01 06:20:17;;;;;;;39.70;19.67;;;1.60;96.70;;;;;;5061578;28;20056;-66
2021/01/01 06:23:01;;;;;;;39.15;21.15;;;1.60;96.70;;;;;;5069933;28;20055;-67
2021/01/01 06:25:27;;;;;;;45.75;21.58;;;1.50;96.70;;;;;;5066717;28;20033;-66
2021/01/01 06:27:54;;;;;;;46.85;20.27;;;1.60;96.80;;;;;;5066279;28;20539;-67
2021/01/01 06:30:22;;;;;;;47.10;21.00;;;1.50;96.80;;;;;;5075682;28;20056;-66
2021/01/01 06:32:48;;;;;;;51.78;22.00;;;1.50;96.80;;;;;;5064294;28;20036;-66
2021/01/01 06:35:19;;;;;;;45.35;22.75;;;1.50;96.80;;;;;;5068119;28;20040;-66
2021/01/01 06:37:55;;;;;;;41.90;21.08;;;1.50;96.80;;;;;;5065008;28;20369;-66
2021/01/01 06:40:21;;;;;;;48.38;20.95;;;1.50;96.90;;;;;;5042204;28;20181;-66
2021/01/01 06:42:57;;;;;;;44.08;21.48;;;1.50;96.90;;;;;;5055459;28;20227;-66
2021/01/01 06:45:47;;;;;;;48.28;22.40;;;1.40;96.90;;;;;;5065327;28;20074;-67
2021/01/01 06:48:28;;;;;;;48.40;21.02;;;1.40;96.80;;;;;;5068007;28;20122;-66
2021/01/01 06:50:54;;;;;;;43.47;21.77;;;1.30;96.90;;;;;;5074441;28;20588;-66
2021/01/01 06:53:27;;;;;;;52.65;22.98;;;1.20;97.00;;;;;;5067499;28;20035;-66
2021/01/01 06:56:06;;;;;;;59.92;23.35;;;1.10;97.00;;;;;;5075739;28;20115;-66
2021/01/01 06:58:32;;;;;;;61.60;23.80;;;1.10;97.20;;;;;;5051194;28;20093;-67
2021/01/01 07:00:58;;;;;;;60.15;23.95;;;1.00;97.20;;;;;;5061606;28;20028;-66
2021/01/01 07:03:28;;;;;;;67.85;26.00;;;1.00;97.30;;;;;;5070961;28;20537;-66
2021/01/01 07:06:01;;;;;;;70.30;25.73;;;1.00;97.40;;;;;;5065083;28;20473;-66
2021/01/01 07:08:41;;;;;;;79.07;26.40;;;1.00;97.40;;;;;;5045116;28;20071;-67
2021/01/01 07:11:13;;;;;;;81.50;25.52;;;1.00;97.50;;;;;;5061505;28;20467;-66
2021/01/01 07:13:43;;;;;;;83.25;26.38;;;1.00;97.50;;;;;;5075034;28;20034;-66
2021/01/01 07:16:09;;;;;;;85.75;26.70;;;0.90;97.50;;;;;;5056823;28;20102;-67
2021/01/01 07:18:35;;;;;;;94.28;28.42;;;1.00;97.60;;;;;;5067366;28;20207;-66
2021/01/01 07:21:20;;;;;;;102.45;29.63;;;1.00;97.60;;;;;;5049537;28;20502;-66
2021/01/01 07:23:47;;;;;;;89.35;28.48;;;1.00;97.70;;;;;;5058785;28;20520;-66
2021/01/01 07:26:15;;;;;;;98.72;30.00;;;1.00;97.70;;;;;;5071281;28;20111;-65
2021/01/01 07:28:43;;;;;;;118.03;31.10;;;1.00;97.70;;;;;;5070871;28;20094;-66
2021/01/01 07:31:13;;;;;;;93.00;27.98;;;1.00;97.70;;;;;;5053713;28;20035;-67
2021/01/01 07:33:42;;;;;;;106.85;31.25;;;1.00;97.70;;;;;;5063774;28;20036;-66
2021/01/01 07:36:09;;;;;;;108.32;30.67;;;1.00;97.70;;;;;;5068347;28;20044;-67
2021/01/01 07:38:37;;;;;;;95.28;30.20;;;1.00;97.70;;;;;;5068948;28;20044;-66
2021/01/01 07:41:04;;;;;;;104.97;31.02;;;1.00;97.70;;;;;;5067427;28;20020;-66
2021/01/01 07:43:30;;;;;;;87.45;29.13;;;1.10;97.70;;;;;;5068993;28;20101;-66
2021/01/01 07:45:56;;;;;;;79.68;28.67;;;1.10;97.70;;;;;;5064989;28;20438;-66
2021/01/01 07:48:22;;;;;;;80.05;27.65;;;1.10;97.60;;;;;;5073443;28;20165;-66
2021/01/01 07:50:48;;;;;;;86.88;29.55;;;1.10;97.60;;;;;;5067770;28;20024;-66
2021/01/01 07:53:14;;;;;;;77.72;29.08;;;1.20;97.60;;;;;;5069171;28;20037;-66
2021/01/01 07:55:42;;;;;;;78.03;28.08;;;1.20;97.60;;;;;;5051531;28;20024;-67
2021/01/01 07:58:09;;;;;;;78.60;27.42;;;1.30;97.60;;;;;;5050418;28;20611;-66
2021/01/01 08:00:37;;;;;;;72.55;27.02;;;1.30;97.60;;;;;;5031144;28;20024;-66
2021/01/01 08:03:04;;;;;;;78.60;29.50;;;1.30;97.50;;;;;;5051555;28;20059;-66
2021/01/01 08:05:30;;;;;;;70.05;27.13;;;1.30;97.50;;;;;;5050792;28;20116;-66
2021/01/01 08:08:15;;;;;;;64.82;25.90;;;1.40;97.50;;;;;;5045075;28;20053;-66
2021/01/01 08:10:43;;;;;;;60.03;24.98;;;1.40;97.40;;;;;;5033870;28;22050;-66
2021/01/01 08:13:18;;;;;;;61.35;25.65;;;1.40;97.40;;;;;;5049683;28;20104;-66
2021/01/01 08:15:44;;;;;;;54.88;26.00;;;1.50;97.30;;;;;;5068833;28;20041;-67
2021/01/01 08:18:11;;;;;;;56.00;24.40;;;1.50;97.20;;;;;;5063687;28;20100;-67
2021/01/01 08:20:38;;;;;;;50.92;24.27;;;1.50;97.20;;;;;;5048447;28;20123;-66
2021/01/01 08:23:12;;;;;;;53.05;22.95;;;1.60;97.10;;;;;;5051421;28;20055;-66
2021/01/01 08:25:38;;;;;;;50.08;24.17;;;1.70;96.90;;;;;;5050130;28;20482;-67
2021/01/01 08:28:05;;;;;;;44.28;22.60;;;1.70;96.80;;;;;;5049082;28;21779;-67
2021/01/01 08:30:33;;;;;;;51.97;22.80;;;1.80;96.80;;;;;;5049717;28;20160;-65
2021/01/01 08:32:59;;;;;;;43.85;23.30;;;1.90;96.70;;;;;;5048229;28;20060;-67
2021/01/01 08:35:29;;;;;;;41.97;21.52;;;1.90;96.60;;;;;;5049422;28;20028;-66
2021/01/01 08:37:54;;;;;;;40.88;20.80;;;1.90;96.50;;;;;;5050899;28;20024;-67
2021/01/01 08:40:22;;;;;;;38.88;21.67;;;2.00;96.50;;;;;;5046772;28;20032;-67
2021/01/01 08:42:53;;;;;;;40.75;21.48;;;2.00;96.40;;;;;;5049520;28;20071;-67
2021/01/01 08:45:19;;;;;;;44.47;20.83;;;2.10;96.30;;;;;;5050486;28;20020;-66
2021/01/01 08:47:46;;;;;;;40.67;20.65;;;2.10;96.30;;;;;;5048789;28;20037;-66
2021/01/01 08:50:20;;;;;;;42.40;19.80;;;2.10;96.30;;;;;;5048984;28;20046;-67
2021/01/01 08:52:51;;;;;;;35.55;18.60;;;2.10;96.20;;;;;;5051115;28;20492;-67
2021/01/01 08:55:17;;;;;;;41.72;20.52;;;2.00;96.10;;;;;;5048194;28;20127;-66
2021/01/01 08:57:42;;;;;;;34.38;18.58;;;2.10;96.10;;;;;;5049750;28;20028;-66
2021/01/01 09:00:09;;;;;;;33.22;18.50;;;2.00;96.00;;;;;;5045974;28;20017;-66
2021/01/01 09:02:35;;;;;;;37.97;21.02;;;2.10;96.10;;;;;;5027611;28;20445;-66
2021/01/01 09:05:04;;;;;;;35.65;18.33;;;2.10;96.10;;;;;;5029701;28;20043;-66
2021/01/01 09:07:29;;;;;;;35.65;19.77;;;2.10;96.10;;;;;;5029831;28;20115;-66
2021/01/01 09:09:55;;;;;;;34.70;19.08;;;2.10;96.10;;;;;;5050245;28;20035;-66
2021/01/01 09:12:22;;;;;;;34.83;18.88;;;2.10;96.10;;;;;;5031461;28;20037;-67
2021/01/01 09:14:54;;;;;;;34.95;18.33;;;2.10;96.00;;;;;;5048989;28;20033;-67
2021/01/01 09:17:22;;;;;;;36.25;19.30;;;2.10;95.80;;;;;;5049701;28;20032;-67
2021/01/01 09:19:59;;;;;;;38.05;18.15;;;2.20;95.80;;;;;;5049801;28;20823;-67
2021/01/01 09:22:24;;;;;;;36.42;18.08;;;2.20;95.80;;;;;;5048229;28;20108;-66
2021/01/01 09:24:50;;;;;;;32.08;16.98;;;2.10;95.70;;;;;;5047884;28;20479;-67
2021/01/01 09:27:15;;;;;;;33.67;18.23;;;2.10;95.80;;;;;;5048431;28;20662;-67
2021/01/01 09:29:41;;;;;;;34.10;18.15;;;2.10;95.80;;;;;;5047606;28;20024;-66
2021/01/01 09:32:12;;;;;;;35.15;18.58;;;2.10;95.80;;;;;;5049262;28;20154;-66
2021/01/01 09:34:38;;;;;;;37.75;18.92;;;2.10;95.80;;;;;;5048597;28;21733;-67
2021/01/01 09:37:11;;;;;;;37.08;18.70;;;2.10;95.90;;;;;;5048807;28;20047;-67
2021/01/01 09:39:37;;;;;;;35.88;19.35;;;2.20;95.90;;;;;;5046497;28;20023;-67
2021/01/01 09:42:03;;;;;;;41.03;19.58;;;2.20;95.80;;;;;;5048817;28;20082;-67
2021/01/01 09:44:29;;;;;;;32.97;18.55;;;2.40;95.80;;;;;;5046848;28;20032;-66
2021/01/01 09:46:54;;;;;;;36.30;18.45;;;2.40;95.70;;;;;;5045781;28;20029;-66
2021/01/01 09:49:20;;;;;;;36.50;18.65;;;2.40;95.50;;;;;;5048793;28;20539;-67
2021/01/01 09:51:46;;;;;;;39.38;19.83;;;2.50;95.40;;;;;;5048060;28;20138;-67
2021/01/01 09:54:12;;;;;;;35.83;18.70;;;2.40;95.40;;;;;;5030686;28;20027;-66
2021/01/01 09:56:38;;;;;;;38.53;19.33;;;2.40;95.40;;;;;;5047490;28;20060;-67
2021/01/01 09:59:04;;;;;;;34.50;18.50;;;2.40;95.50;;;;;;5046600;28;20032;-67
2021/01/01 10:01:30;;;;;;;34.75;19.25;;;2.40;95.50;;;;;;5048813;28;20033;-67
2021/01/01 10:03:57;;;;;;;34.53;18.52;;;2.60;95.50;;;;;;5029890;28;21706;-67
2021/01/01 10:06:23;;;;;;;36.25;18.67;;;2.60;95.30;;;;;;5047285;28;20103;-67
2021/01/01 10:08:48;;;;;;;36.63;19.20;;;2.60;95.30;;;;;;5033513;28;20031;-67
2021/01/01 10:11:15;;;;;;;33.30;18.33;;;2.60;95.40;;;;;;5047638;28;20037;-67
2021/01/01 10:13:41;;;;;;;31.98;18.48;;;2.60;95.40;;;;;;5049514;28;20043;-67
2021/01/01 10:16:08;;;;;;;33.72;18.88;;;2.60;95.50;;;;;;5046518;28;20036;-67
2021/01/01 10:18:33;;;;;;;28.00;16.88;;;2.70;95.30;;;;;;5045407;28;20552;-67
2021/01/01 10:20:59;;;;;;;35.90;18.13;;;2.70;95.20;;;;;;5044589;28;20031;-67
2021/01/01 10:23:25;;;;;;;37.08;18.67;;;2.80;95.20;;;;;;5029838;28;20029;-67
2021/01/01 10:25:51;;;;;;;33.22;18.17;;;2.90;95.00;;;;;;5030495;28;20028;-67
2021/01/01 10:28:18;;;;;;;25.98;15.75;;;2.90;94.70;;;;;;5048296;28;20381;-67
2021/01/01 10:30:44;;;;;;;26.67;16.63;;;2.90;94.40;;;;;;5046619;28;20796;-68
2021/01/01 10:33:11;;;;;;;29.15;17.52;;;3.00;94.30;;;;;;5050741;28;20036;-67
2021/01/01 10:35:36;;;;;;;29.80;16.13;;;2.90;94.00;;;;;;5047268;28;20043;-67
2021/01/01 10:38:02;;;;;;;26.33;15.77;;;3.00;94.20;;;;;;5048404;28;20724;-66
2021/01/01 10:40:28;;;;;;;27.35;15.35;;;3.10;94.10;;;;;;5047690;28;20028;-67
2021/01/01 10:42:54;;;;;;;32.08;16.80;;;3.10;94.00;;;;;;5030843;28;20120;-67
2021/01/01 10:45:19;;;;;;;25.38;14.05;;;3.20;93.60;;;;;;5048645;28;20403;-67
2021/01/01 10:47:46;;;;;;;25.33;15.65;;;3.30;93.50;;;;;;5049812;28;20045;-67
2021/01/01 10:50:12;;;;;;;25.80;14.73;;;3.30;93.20;;;;;;5048125;28;20036;-67
2021/01/01 10:52:37;;;;;;;22.25;14.38;;;3.40;93.70;;;;;;5050150;28;20054;-67
2021/01/01 10:55:04;;;;;;;27.13;15.32;;;3.40;93.60;;;;;;5047691;28;20029;-67
2021/01/01 10:57:29;;;;;;;26.48;14.85;;;3.30;93.00;;;;;;5048998;28;20126;-67
2021/01/01 10:59:55;;;;;;;24.08;14.52;;;3.40;93.10;;;;;;5052193;28;20025;-67
2021/01/01 11:02:21;;;;;;;24.77;14.60;;;3.50;93.30;;;;;;5052380;28;20367;-67
2021/01/01 11:04:46;;;;;;;26.88;14.73;;;3.60;93.20;;;;;;5050781;28;20520;-67
2021/01/01 11:07:12;;;;;;;24.17;14.45;;;3.60;93.00;;;;;;5051208;28;20407;-67
2021/01/01 11:09:37;;;;;;;24.50;14.05;;;3.60;92.90;;;;;;5054669;28;20440;-67
2021/01/01 11:12:05;;;;;;;24.17;14.13;;;3.60;92.60;;;;;;5050982;28;20433;-67
2021/01/01 12:25:55;;;;;;;39.05;20.42;;;3.40;93.90;;;;;;5050176;28;20567;-67
2021/01/01 12:28:22;;;;;;;33.55;20.45;;;3.30;94.00;;;;;;5050663;28;20028;-67
2021/01/01 12:30:51;;;;;;;34.83;20.60;;;3.30;93.80;;;;;;5050518;28;20054;-67
2021/01/01 12:33:17;;;;;;;37.70;21.20;;;3.30;93.90;;;;;;5050485;28;20029;-67
2021/01/01 12:35:42;;;;;;;34.53;20.58;;;3.40;93.80;;;;;;5049606;28;20029;-67
2021/01/01 12:38:08;;;;;;;33.05;19.67;;;3.40;93.80;;;;;;5047069;28;20040;-67
2021/01/01 12:40:35;;;;;;;35.40;19.52;;;3.50;93.70;;;;;;5049884;28;20036;-67
2021/01/01 12:43:02;;;;;;;32.80;18.08;;;3.60;93.60;;;;;;5047954;28;20447;-67
2021/01/01 12:45:28;;;;;;;33.75;19.15;;;3.50;93.40;;;;;;5047843;28;20037;-67
2021/01/01 12:47:55;;;;;;;38.03;17.85;;;3.60;93.60;;;;;;5047108;28;20055;-67
2021/01/01 12:50:21;;;;;;;33.08;18.15;;;3.50;93.80;;;;;;5048306;28;20118;-67
2021/01/01 12:52:53;;;;;;;34.95;19.02;;;3.50;93.90;;;;;;5048352;28;20458;-68
2021/01/01 12:55:19;;;;;;;32.30;17.48;;;3.40;93.90;;;;;;5026304;28;20096;-67
2021/01/01 12:57:44;;;;;;;28.10;16.48;;;3.30;93.70;;;;;;5039998;28;20854;-67
2021/01/01 13:00:11;;;;;;;32.83;17.83;;;3.40;93.90;;;;;;5049061;28;21926;-68
2021/01/01 13:02:36;;;;;;;33.85;18.42;;;3.40;94.00;;;;;;5048319;28;20420;-69
2021/01/01 13:05:02;;;;;;;31.67;18.83;;;3.40;93.90;;;;;;5050135;28;20040;-69
2021/01/01 13:07:27;;;;;;;29.90;16.88;;;3.40;94.00;;;;;;5031355;28;20422;-69
2021/01/01 13:09:53;;;;;;;25.98;16.50;;;3.50;94.00;;;;;;5053665;28;20337;-68
2021/01/01 13:12:19;;;;;;;31.85;17.48;;;3.50;93.90;;;;;;5059318;28;20128;-68
2021/01/01 13:14:44;;;;;;;27.17;16.80;;;3.40;93.70;;;;;;5056443;28;20044;-68
2021/01/01 13:17:10;;;;;;;29.63;17.27;;;3.40;93.90;;;;;;5058289;28;20028;-68
2021/01/01 13:19:35;;;;;;;32.88;17.75;;;3.40;93.90;;;;;;5058118;28;20382;-68
2021/01/01 13:22:01;;;;;;;31.05;17.02;;;3.30;93.80;;;;;;5059275;28;20089;-68
2021/01/01 13:24:26;;;;;;;28.10;16.95;;;3.30;93.90;;;;;;5065357;28;20354;-68
2021/01/01 13:26:52;;;;;;;29.50;17.30;;;3.20;93.70;;;;;;5056408;28;20483;-68
2021/01/01 13:29:18;;;;;;;28.33;17.58;;;3.30;93.90;;;;;;5063881;28;20132;-68
2021/01/01 13:31:44;;;;;;;28.35;16.17;;;3.30;93.90;;;;;;5085400;28;20134;-68
2021/01/01 13:34:10;;;;;;;30.00;17.15;;;3.30;93.60;;;;;;5079765;28;20028;-68
2021/01/01 13:36:37;;;;;;;30.88;17.13;;;3.30;93.60;;;;;;5085351;28;20020;-68
2021/01/01 13:39:04;;;;;;;29.73;16.88;;;3.40;93.70;;;;;;5070774;28;20026;-68
2021/01/01 13:41:31;;;;;;;30.85;16.77;;;3.30;93.60;;;;;;5072766;28;20031;-68
2021/01/01 13:43:57;;;;;;;28.38;17.30;;;3.40;93.80;;;;;;5070417;28;20024;-68
2021/01/01 13:46:26;;;;;;;29.90;17.92;;;3.40;93.40;;;;;;5057933;28;20430;-68
2021/01/01 13:48:53;;;;;;;30.05;17.17;;;3.40;93.80;;;;;;5069010;28;20036;-68
2021/01/01 13:51:45;;;;;;;31.73;17.23;;;3.40;93.60;;;;;;5070228;28;20047;-68